createdAt,value
2023-04-11T00:00:54.956Z,80.84
2023-04-11T00:03:22.935Z,80.61
2023-04-11T00:05:50.704Z,79.84
2023-04-11T00:08:18.241Z,80.74
2023-04-11T00:10:45.982Z,82.33
2023-04-11T00:13:13.457Z,82.15
2023-04-11T00:15:42.270Z,81.09
2023-04-11T00:18:12.460Z,82.36
2023-04-11T00:20:39.958Z,83.56
2023-04-11T00:23:08.528Z,83.07
2023-04-11T00:25:37.196Z,83.45
2023-04-11T00:28:04.881Z,84.17
2023-04-11T00:30:32.350Z,85.05
2023-04-11T00:33:01.172Z,85.47
2023-04-11T00:35:28.640Z,86.60
2023-04-11T00:37:56.261Z,86.21
2023-04-11T00:40:23.825Z,84.83
2023-04-11T00:42:51.323Z,84.81
2023-04-11T00:45:18.785Z,84.85
2023-04-11T00:47:46.336Z,85.74
2023-04-11T00:50:15.935Z,84.96
2023-04-11T00:52:44.043Z,84.23
2023-04-11T00:55:11.604Z,85.98
2023-04-11T00:57:39.208Z,86.33
2023-04-11T01:00:10.330Z,84.93
2023-04-11T01:02:38.600Z,83.17
2023-04-11T01:05:07.895Z,82.44
2023-04-11T01:07:37.140Z,83.47
2023-04-11T01:10:05.643Z,82.77
2023-04-11T01:12:33.466Z,82.98
2023-04-11T01:15:00.982Z,84.32
2023-04-11T01:17:28.590Z,84.42
2023-04-11T01:19:56.130Z,84.91
2023-04-11T01:22:23.953Z,84.38
2023-04-11T01:24:52.822Z,86.76
2023-04-11T01:27:20.522Z,83.71
2023-04-11T01:29:48.018Z,86.30
2023-04-11T01:32:15.493Z,87.12
2023-04-11T01:34:43.488Z,88.30
2023-04-11T01:37:10.976Z,87.83
2023-04-11T01:39:38.444Z,88.16
2023-04-11T01:42:07.522Z,86.31
2023-04-11T01:44:36.975Z,85.25
2023-04-11T01:47:04.756Z,85.17
2023-04-11T01:49:32.248Z,87.26
2023-04-11T01:51:59.695Z,86.41
2023-04-11T01:54:27.146Z,87.62
2023-04-11T01:56:55.025Z,89.93
2023-04-11T01:59:23.839Z,89.45
2023-04-11T02:01:51.329Z,90.37
2023-04-11T02:04:19.036Z,90.66
2023-04-11T02:06:46.712Z,90.15
2023-04-11T02:09:14.146Z,90.33
2023-04-11T02:11:41.627Z,90.91
2023-04-11T02:14:10.147Z,89.87
2023-04-11T02:16:51.694Z,90.38
2023-04-11T02:19:20.778Z,91.80
2023-04-11T02:21:48.330Z,91.31
2023-04-11T02:24:15.880Z,91.09
2023-04-11T02:26:43.495Z,91.33
2023-04-11T02:29:11.059Z,89.02
2023-04-11T02:31:39.347Z,89.10
2023-04-11T02:34:08.230Z,89.85
2023-04-11T02:36:36.033Z,89.42
2023-04-11T02:39:03.631Z,90.02
2023-04-11T02:41:31.121Z,89.34
2023-04-11T02:43:58.586Z,92.47
2023-04-11T02:46:26.081Z,93.10
2023-04-11T02:48:53.572Z,95.07
2023-04-11T02:51:22.491Z,93.81
2023-04-11T02:53:50.011Z,94.09
2023-04-11T02:56:19.654Z,93.98
2023-04-11T02:58:47.386Z,95.00
2023-04-11T03:01:17.060Z,96.02
2023-04-11T03:03:44.945Z,96.42
2023-04-11T03:06:12.629Z,95.91
2023-04-11T03:08:41.386Z,95.69
2023-04-11T03:11:08.837Z,96.33
2023-04-11T03:13:37.224Z,96.48
2023-04-11T03:16:05.337Z,96.74
2023-04-11T03:18:32.831Z,96.16
2023-04-11T03:21:00.495Z,95.54
2023-04-11T03:23:27.918Z,95.01
2023-04-11T03:25:58.372Z,94.11
2023-04-11T03:28:25.804Z,93.88
2023-04-11T03:30:54.388Z,93.70
2023-04-11T03:33:21.838Z,94.03
2023-04-11T03:35:49.353Z,93.89
2023-04-11T03:38:16.830Z,92.06
2023-04-11T03:40:44.306Z,92.23
2023-04-11T03:43:13.142Z,91.07
2023-04-11T03:45:40.632Z,91.09
2023-04-11T03:48:08.167Z,91.33
2023-04-11T03:50:35.762Z,90.28
2023-04-11T03:53:03.435Z,91.28
2023-04-11T03:55:30.877Z,91.63
2023-04-11T03:57:58.325Z,92.08
2023-04-11T04:00:27.805Z,91.91
2023-04-11T04:02:55.512Z,91.71
2023-04-11T04:05:23.499Z,91.97
2023-04-11T04:07:51.018Z,92.38
2023-04-11T04:10:18.676Z,93.63
2023-04-11T04:12:46.209Z,92.94
2023-04-11T04:15:14.818Z,94.34
2023-04-11T04:17:44.643Z,94.06
2023-04-11T04:20:12.905Z,93.57
2023-04-11T04:22:40.432Z,94.13
2023-04-11T04:25:09.505Z,93.80
2023-04-11T04:27:37.042Z,93.80
2023-04-11T04:30:04.918Z,94.17
2023-04-11T04:32:32.431Z,93.48
2023-04-11T04:35:02.443Z,92.87
2023-04-11T04:37:29.968Z,92.86
2023-04-11T04:40:02.073Z,94.29
2023-04-11T04:42:30.598Z,93.64
2023-04-11T04:44:58.439Z,92.74
2023-04-11T04:47:31.228Z,92.87
2023-04-11T04:49:59.231Z,94.44
2023-04-11T04:52:29.649Z,94.24
2023-04-11T04:54:58.709Z,94.94
2023-04-11T04:57:27.021Z,95.62
2023-04-11T04:59:54.706Z,94.56
2023-04-11T05:02:22.594Z,94.75
2023-04-11T05:04:50.853Z,95.58
2023-04-11T05:07:18.470Z,94.41
2023-04-11T05:09:47.401Z,94.54
2023-04-11T05:12:16.169Z,93.80
2023-04-11T05:14:43.648Z,93.83
2023-04-11T05:17:11.210Z,93.43
2023-04-11T05:19:38.708Z,93.33
2023-04-11T05:22:06.183Z,92.76
2023-04-11T05:24:33.689Z,92.92
2023-04-11T05:27:02.518Z,92.70
2023-04-11T05:29:30.286Z,92.57
2023-04-11T05:31:57.739Z,92.00
2023-04-11T05:34:25.300Z,92.82
2023-04-11T05:36:52.930Z,92.71
2023-04-11T05:39:20.599Z,91.30
2023-04-11T05:41:48.053Z,89.81
2023-04-11T05:44:16.871Z,89.15
2023-04-11T05:46:44.331Z,88.90
2023-04-11T05:49:12.256Z,89.14
2023-04-11T05:51:39.705Z,89.24
2023-04-11T05:54:07.452Z,89.24
2023-04-11T05:56:35.274Z,89.57
2023-04-11T05:59:03.771Z,88.33
2023-04-11T06:01:32.639Z,87.93
2023-04-11T06:04:00.368Z,87.92
2023-04-11T06:06:28.643Z,87.42
2023-04-11T06:08:56.294Z,87.53
2023-04-11T06:11:25.662Z,87.84
2023-04-11T06:13:53.151Z,86.93
2023-04-11T06:16:20.724Z,86.39
2023-04-11T06:18:49.583Z,86.43
2023-04-11T06:21:17.140Z,84.77
2023-04-11T06:23:44.812Z,84.00
2023-04-11T06:26:12.241Z,82.94
2023-04-11T06:28:39.710Z,84.25
2023-04-11T06:31:09.770Z,82.08
2023-04-11T06:33:37.283Z,82.69
2023-04-11T06:36:06.855Z,82.41
2023-04-11T06:38:36.506Z,81.65
2023-04-11T06:41:03.994Z,81.07
2023-04-11T06:43:31.981Z,81.81
2023-04-11T06:45:59.545Z,81.64
2023-04-11T06:48:27.031Z,80.70
2023-04-11T06:50:54.490Z,80.18
2023-04-11T06:53:23.275Z,81.34
2023-04-11T06:55:50.766Z,80.13
2023-04-11T06:58:18.295Z,79.42
2023-04-11T07:00:45.733Z,79.36
2023-04-11T07:03:13.983Z,79.76
2023-04-11T07:05:41.618Z,78.27
2023-04-11T07:08:09.116Z,77.96
2023-04-11T07:10:37.913Z,78.26
2023-04-11T07:13:05.406Z,77.54
2023-04-11T07:15:32.852Z,77.15
2023-04-11T07:18:00.567Z,76.62
2023-04-11T07:20:28.191Z,75.65
2023-04-11T07:22:56.624Z,74.09
2023-04-11T07:25:27.094Z,74.42
2023-04-11T07:27:56.306Z,73.22
2023-04-11T07:30:24.000Z,69.76
2023-04-11T07:32:51.582Z,71.11
2023-04-11T07:35:19.372Z,72.12
2023-04-11T07:37:47.546Z,71.08
2023-04-11T07:40:15.422Z,70.14
2023-04-11T07:42:43.067Z,70.03
2023-04-11T07:45:12.018Z,68.92
2023-04-11T07:47:39.600Z,68.60
2023-04-11T07:50:08.057Z,68.11
2023-04-11T07:52:36.027Z,67.46
2023-04-11T07:55:04.088Z,67.31
2023-04-11T07:57:31.679Z,67.33
2023-04-11T08:00:00.170Z,66.39
2023-04-11T08:02:29.258Z,65.48
2023-04-11T08:04:57.183Z,66.66
2023-04-11T08:07:24.862Z,65.92
2023-04-11T08:09:52.345Z,66.67
2023-04-11T08:12:19.925Z,65.60
2023-04-11T08:14:47.499Z,67.36
2023-04-11T08:17:27.064Z,66.29
2023-04-11T08:19:57.348Z,66.35
2023-04-11T08:22:24.933Z,66.18
2023-04-11T08:24:53.053Z,65.90
2023-04-11T08:27:20.511Z,64.89
2023-04-11T08:29:48.095Z,64.96
2023-04-11T08:32:15.603Z,63.24
2023-04-11T08:34:43.093Z,62.48
2023-04-11T08:37:12.891Z,62.67
2023-04-11T08:39:40.664Z,62.97
2023-04-11T08:42:08.182Z,61.99
2023-04-11T08:44:37.021Z,60.09
2023-04-11T08:47:05.410Z,60.38
2023-04-11T08:49:32.862Z,60.80
2023-04-11T08:52:01.831Z,60.03
2023-04-11T08:54:31.006Z,61.72
2023-04-11T08:56:58.573Z,59.83
2023-04-11T08:59:27.155Z,59.71
2023-04-11T09:02:07.418Z,58.39
2023-04-11T09:04:41.159Z,58.77
2023-04-11T09:07:09.050Z,65.76
2023-04-11T09:09:39.258Z,70.58
2023-04-11T09:12:07.059Z,71.90
2023-04-11T09:14:34.801Z,69.83
2023-04-11T09:17:04.693Z,68.41
2023-04-11T09:19:33.554Z,70.48
2023-04-11T09:22:02.354Z,72.17
2023-04-11T09:24:30.570Z,72.45
2023-04-11T09:27:10.471Z,73.27
2023-04-11T09:29:42.796Z,73.38
2023-04-11T09:32:31.658Z,71.93
2023-04-11T09:35:09.674Z,68.85
2023-04-11T09:37:47.160Z,71.11
2023-04-11T09:40:16.545Z,68.37
2023-04-11T09:42:46.966Z,69.46
2023-04-11T09:45:19.334Z,69.71
2023-04-11T09:47:47.516Z,67.26
2023-04-11T09:50:15.609Z,68.64
2023-04-11T09:52:43.929Z,67.76
2023-04-11T09:55:12.870Z,66.93
2023-04-11T09:57:45.489Z,64.51
2023-04-11T10:00:16.853Z,65.84
2023-04-11T10:02:45.956Z,65.12
2023-04-11T10:05:15.818Z,62.61
2023-04-11T10:07:48.026Z,62.30
2023-04-11T10:10:22.980Z,62.76
2023-04-11T10:12:50.990Z,58.78
2023-04-11T10:15:19.901Z,60.17
2023-04-11T10:18:10.039Z,58.30
2023-04-11T10:20:46.134Z,61.37
2023-04-11T10:23:14.877Z,61.45
2023-04-11T10:25:53.696Z,61.47
2023-04-11T10:28:31.879Z,64.81
2023-04-11T10:31:02.047Z,65.24
2023-04-11T10:33:29.599Z,67.79
2023-04-11T10:35:58.771Z,69.04
2023-04-11T10:38:48.269Z,72.55
2023-04-11T10:41:20.945Z,71.85
2023-04-11T10:43:48.583Z,67.55
2023-04-11T10:46:21.677Z,68.25
2023-04-11T10:48:59.699Z,68.12
2023-04-11T10:51:28.346Z,64.23
2023-04-11T10:53:59.413Z,64.18
2023-04-11T10:57:00.212Z,64.21
2023-04-11T10:59:58.410Z,60.38
2023-04-11T11:02:38.621Z,61.10
2023-04-11T11:05:23.314Z,57.82
2023-04-11T11:07:52.603Z,56.11
2023-04-11T11:10:39.984Z,55.18
2023-04-11T11:13:07.687Z,54.39
2023-04-11T11:15:37.596Z,53.15
2023-04-11T11:18:08.901Z,51.92
2023-04-11T11:20:37.308Z,46.65
2023-04-11T11:23:06.622Z,45.59
2023-04-11T11:25:34.314Z,44.55
2023-04-11T11:28:03.367Z,44.14
2023-04-11T11:30:31.015Z,43.22
2023-04-11T11:32:58.847Z,44.00
2023-04-11T11:35:28.030Z,44.46
2023-04-11T11:37:56.980Z,45.29
2023-04-11T11:40:24.676Z,46.96
2023-04-11T11:42:52.976Z,49.21
2023-04-11T11:45:21.897Z,50.38
2023-04-11T11:47:50.681Z,53.14
2023-04-11T11:50:30.407Z,52.28
2023-04-11T11:53:00.386Z,52.28
2023-04-11T11:55:32.208Z,52.71
2023-04-11T11:58:01.906Z,52.74
2023-04-11T12:00:30.934Z,51.99
2023-04-11T12:03:00.637Z,52.00
2023-04-11T12:05:33.110Z,50.80
2023-04-11T12:08:02.565Z,50.00
2023-04-11T12:10:38.304Z,49.85
2023-04-11T12:13:13.122Z,50.44
2023-04-11T12:15:42.124Z,49.51
2023-04-11T12:18:09.866Z,46.38
2023-04-11T12:20:38.745Z,46.93
2023-04-11T12:23:06.309Z,44.58
2023-04-11T12:25:33.894Z,44.69
2023-04-11T12:28:01.378Z,45.35
2023-04-11T12:30:30.067Z,46.02
2023-04-11T12:32:57.792Z,46.50
2023-04-11T12:35:25.482Z,47.58
2023-04-11T12:37:54.321Z,44.41
2023-04-11T12:40:22.200Z,43.88
2023-04-11T12:42:56.877Z,44.29
2023-04-11T12:45:24.942Z,45.76
2023-04-11T12:47:52.827Z,47.18
2023-04-11T12:50:22.967Z,48.47
2023-04-11T12:52:50.556Z,48.33
2023-04-11T12:55:19.683Z,46.35
2023-04-11T12:57:47.229Z,47.74
2023-04-11T13:00:16.660Z,45.54
2023-04-11T13:02:45.562Z,46.39
2023-04-11T13:05:15.040Z,46.73
2023-04-11T13:07:44.587Z,46.59
2023-04-11T13:10:13.504Z,45.97
2023-04-11T13:12:44.492Z,46.70
2023-04-11T13:15:13.315Z,44.13
2023-04-11T13:17:40.878Z,41.34
2023-04-11T13:20:10.861Z,41.96
2023-04-11T13:22:38.596Z,42.05
2023-04-11T13:25:07.368Z,39.68
2023-04-11T13:27:35.470Z,40.73
2023-04-11T13:30:05.839Z,38.04
2023-04-11T13:32:33.389Z,38.43
2023-04-11T13:35:00.894Z,38.71
2023-04-11T13:37:28.410Z,38.75
2023-04-11T13:39:55.932Z,39.76
2023-04-11T13:42:23.392Z,39.56
2023-04-11T13:44:50.857Z,38.79
2023-04-11T13:47:19.706Z,38.23
2023-04-11T13:49:47.340Z,38.46
2023-04-11T13:52:14.945Z,38.81
2023-04-11T13:54:42.449Z,38.52
2023-04-11T13:57:09.983Z,40.69
2023-04-11T13:59:37.412Z,38.41
2023-04-11T14:02:05.011Z,41.19
2023-04-11T14:04:34.057Z,40.04
2023-04-11T14:07:01.775Z,39.34
2023-04-11T14:09:29.221Z,38.00
2023-04-11T14:11:57.012Z,38.00
2023-04-11T14:14:24.604Z,36.41
2023-04-11T14:16:52.185Z,37.00
2023-04-11T14:19:22.266Z,35.41
2023-04-11T14:21:51.746Z,36.44
2023-04-11T14:24:21.789Z,37.18
2023-04-11T14:26:50.108Z,36.36
2023-04-11T14:29:17.623Z,35.30
2023-04-11T14:31:46.102Z,35.16
2023-04-11T14:34:13.682Z,36.23
2023-04-11T14:36:41.324Z,37.95
2023-04-11T14:39:10.365Z,37.11
2023-04-11T14:41:37.880Z,36.46
2023-04-11T14:44:05.584Z,36.57
2023-04-11T14:46:33.047Z,36.88
2023-04-11T14:49:00.615Z,36.75
2023-04-11T14:51:29.610Z,38.39
2023-04-11T14:53:59.668Z,39.41
2023-04-11T14:56:28.608Z,39.58
2023-04-11T14:58:56.075Z,40.02
2023-04-11T15:01:24.095Z,40.65
2023-04-11T15:03:51.781Z,39.57
2023-04-11T15:06:22.154Z,38.93
2023-04-11T15:08:50.522Z,39.83
2023-04-11T15:11:18.695Z,39.44
2023-04-11T15:13:48.283Z,39.46
2023-04-11T15:16:16.933Z,39.15
2023-04-11T15:18:45.536Z,38.98
2023-04-11T15:21:12.987Z,39.42
2023-04-11T15:23:42.369Z,39.96
2023-04-11T15:26:09.811Z,41.74
2023-04-11T15:28:38.686Z,39.04
2023-04-11T15:31:09.038Z,39.01
2023-04-11T15:33:38.252Z,37.65
2023-04-11T15:36:06.484Z,37.57
2023-04-11T15:38:35.294Z,38.83
2023-04-11T15:41:02.867Z,38.49
2023-04-11T15:43:32.024Z,38.11
2023-04-11T15:45:59.481Z,40.13
2023-04-11T15:48:28.286Z,40.41
2023-04-11T15:50:55.773Z,38.87
2023-04-11T15:53:23.325Z,39.40
2023-04-11T15:55:51.232Z,37.98
2023-04-11T15:58:18.910Z,40.00
2023-04-11T16:00:46.971Z,38.80
2023-04-11T16:03:16.646Z,37.56
2023-04-11T16:05:47.125Z,35.76
2023-04-11T16:08:14.629Z,35.68
2023-04-11T16:10:42.121Z,35.65
2023-04-11T16:13:10.090Z,36.37
2023-04-11T16:15:37.568Z,36.39
2023-04-11T16:18:05.220Z,37.03
2023-04-11T16:20:34.294Z,35.97
2023-04-11T16:23:03.134Z,36.29
2023-04-11T16:25:30.855Z,36.58
2023-04-11T16:27:59.093Z,36.15
2023-04-11T16:30:27.899Z,36.37
2023-04-11T16:32:55.589Z,34.87
2023-04-11T16:35:23.110Z,36.31
2023-04-11T16:37:50.674Z,37.28
2023-04-11T16:40:19.635Z,36.31
2023-04-11T16:42:47.205Z,36.91
2023-04-11T16:45:14.850Z,36.21
2023-04-11T16:47:42.387Z,36.61
2023-04-11T16:50:10.524Z,37.50
2023-04-11T16:52:38.160Z,37.60
2023-04-11T16:55:06.699Z,37.82
2023-04-11T16:57:35.549Z,38.33
2023-04-11T17:00:16.286Z,38.69
2023-04-11T17:02:43.934Z,38.75
2023-04-11T17:05:11.782Z,39.50
2023-04-11T17:07:39.398Z,39.32
2023-04-11T17:10:08.255Z,39.51
2023-04-11T17:12:37.122Z,39.91
2023-04-11T17:15:06.979Z,39.99
2023-04-11T17:17:34.737Z,41.17
2023-04-11T17:20:07.677Z,40.91
2023-04-11T17:22:35.510Z,41.84
2023-04-11T17:25:04.046Z,43.45
2023-04-11T17:27:31.649Z,42.49
2023-04-11T17:30:00.792Z,43.90
2023-04-11T17:32:28.345Z,43.57
2023-04-11T17:34:55.873Z,44.17
2023-04-11T17:37:23.514Z,44.20
2023-04-11T17:39:51.049Z,45.69
2023-04-11T17:42:18.665Z,46.05
2023-04-11T17:44:46.462Z,46.06
2023-04-11T17:47:16.177Z,46.76
2023-04-11T17:49:43.616Z,47.09
2023-04-11T17:52:11.108Z,47.66
2023-04-11T17:54:39.797Z,48.13
2023-04-11T17:57:08.224Z,48.22
2023-04-11T17:59:35.689Z,49.04
2023-04-11T18:02:03.238Z,48.86
2023-04-11T18:04:32.120Z,49.18
2023-04-11T18:06:59.723Z,49.12
2023-04-11T18:09:31.690Z,49.09
2023-04-11T18:12:00.279Z,49.21
2023-04-11T18:14:28.197Z,49.32
2023-04-11T18:16:55.904Z,49.72
2023-04-11T18:19:23.454Z,49.99
2023-04-11T18:21:52.641Z,50.13
2023-04-11T18:24:20.185Z,50.68
2023-04-11T18:26:48.106Z,50.30
2023-04-11T18:29:15.861Z,50.73
2023-04-11T18:31:43.422Z,51.10
2023-04-11T18:34:11.518Z,51.28
2023-04-11T18:36:39.223Z,51.43
2023-04-11T18:39:08.963Z,51.44
2023-04-11T18:41:36.415Z,51.10
2023-04-11T18:44:05.672Z,52.68
2023-04-11T18:46:35.003Z,53.87
2023-04-11T18:49:04.701Z,54.28
2023-04-11T18:51:34.261Z,54.16
2023-04-11T18:54:01.809Z,54.67
2023-04-11T18:56:30.718Z,54.17
2023-04-11T18:59:04.344Z,54.83
2023-04-11T19:01:34.231Z,54.54
2023-04-11T19:04:02.166Z,55.26
2023-04-11T19:06:29.944Z,53.85
2023-04-11T19:08:57.632Z,54.77
2023-04-11T19:11:25.318Z,55.60
2023-04-11T19:13:55.037Z,56.08
2023-04-11T19:16:22.684Z,56.40
2023-04-11T19:18:50.404Z,56.38
2023-04-11T19:21:17.884Z,57.34
2023-04-11T19:23:45.729Z,58.23
2023-04-11T19:26:13.520Z,59.14
2023-04-11T19:28:41.064Z,59.15
2023-04-11T19:31:09.861Z,58.56
2023-04-11T19:33:38.858Z,59.85
2023-04-11T19:36:07.017Z,59.71
2023-04-11T19:38:34.650Z,59.44
2023-04-11T19:41:10.961Z,59.55
2023-04-11T19:43:38.471Z,58.64
2023-04-11T19:46:06.973Z,58.56
2023-04-11T19:48:39.898Z,59.17
2023-04-11T19:51:07.815Z,59.11
2023-04-11T19:53:35.866Z,58.97
2023-04-11T19:56:04.061Z,60.18
2023-04-11T19:58:32.158Z,60.76
2023-04-11T20:00:59.844Z,59.96
2023-04-11T20:03:27.557Z,60.42
2023-04-11T20:05:56.922Z,58.95
2023-04-11T20:08:26.731Z,59.20
2023-04-11T20:10:55.307Z,58.80
2023-04-11T20:13:22.769Z,58.60
2023-04-11T20:15:50.354Z,58.64
2023-04-11T20:18:17.921Z,58.54
2023-04-11T20:20:46.945Z,59.14
2023-04-11T20:23:16.577Z,56.32
2023-04-11T20:25:44.221Z,56.05
2023-04-11T20:28:11.694Z,56.93
2023-04-11T20:30:39.649Z,57.02
2023-04-11T20:33:07.603Z,57.34
2023-04-11T20:35:35.144Z,57.97
2023-04-11T20:38:02.669Z,57.35
2023-04-11T20:40:31.477Z,58.02
2023-04-11T20:43:00.086Z,57.55
2023-04-11T20:45:27.848Z,57.78
2023-04-11T20:47:56.247Z,57.44
2023-04-11T20:50:25.628Z,56.85
2023-04-11T20:52:53.258Z,56.55
2023-04-11T20:55:21.601Z,56.66
2023-04-11T20:57:50.413Z,57.30
2023-04-11T21:00:18.939Z,58.29
2023-04-11T21:02:49.717Z,58.32
2023-04-11T21:05:18.492Z,58.06
2023-04-11T21:07:46.146Z,57.29
2023-04-11T21:10:15.448Z,57.00
2023-04-11T21:12:43.661Z,57.95
2023-04-11T21:15:12.910Z,58.04
2023-04-11T21:17:40.592Z,57.65
2023-04-11T21:20:10.116Z,59.47
2023-04-11T21:22:37.930Z,58.65
2023-04-11T21:25:06.109Z,58.70
2023-04-11T21:27:33.613Z,58.21
2023-04-11T21:30:01.107Z,58.40
2023-04-11T21:32:29.964Z,59.61
2023-04-11T21:34:57.477Z,59.08
2023-04-11T21:37:25.031Z,59.12
2023-04-11T21:39:54.998Z,58.51
2023-04-11T21:42:22.506Z,59.22
2023-04-11T21:44:50.047Z,60.33
2023-04-11T21:47:17.721Z,59.06
2023-04-11T21:49:47.129Z,58.82
2023-04-11T21:52:14.861Z,58.21
2023-04-11T21:54:43.740Z,57.52
2023-04-11T21:57:11.426Z,57.61
2023-04-11T21:59:39.813Z,59.00
2023-04-11T22:02:07.510Z,58.95
2023-04-11T22:04:41.416Z,58.92
2023-04-11T22:07:17.914Z,59.42
2023-04-11T22:09:46.890Z,60.26
2023-04-11T22:12:15.463Z,59.74
2023-04-11T22:14:42.975Z,59.97
2023-04-11T22:17:10.429Z,60.32
2023-04-11T22:19:37.898Z,59.82
2023-04-11T22:22:08.099Z,59.81
2023-04-11T22:24:38.282Z,59.59
2023-04-11T22:27:07.002Z,60.80
2023-04-11T22:29:34.593Z,60.82
2023-04-11T22:32:03.871Z,61.02
2023-04-11T22:34:31.511Z,61.07
2023-04-11T22:36:59.020Z,61.91
2023-04-11T22:39:26.471Z,61.61
2023-04-11T22:41:55.448Z,60.69
2023-04-11T22:44:22.922Z,61.76
2023-04-11T22:47:00.878Z,61.93
2023-04-11T22:49:28.806Z,61.66
2023-04-11T22:51:59.230Z,61.99
2023-04-11T22:54:27.654Z,60.98
2023-04-11T22:56:57.146Z,61.77
2023-04-11T22:59:24.972Z,61.85
2023-04-11T23:01:52.580Z,61.81
2023-04-11T23:04:20.498Z,62.31
2023-04-11T23:06:49.678Z,62.13
2023-04-11T23:09:17.626Z,61.54
2023-04-11T23:11:45.801Z,62.29
2023-04-11T23:14:15.399Z,62.76
2023-04-11T23:16:44.143Z,63.58
2023-04-11T23:19:12.002Z,63.25
2023-04-11T23:21:39.578Z,62.59
2023-04-11T23:24:07.496Z,61.48
2023-04-11T23:26:35.025Z,63.69
2023-04-11T23:29:03.483Z,64.11
2023-04-11T23:31:34.823Z,63.88
2023-04-11T23:34:03.258Z,63.96
2023-04-11T23:36:30.722Z,64.49
2023-04-11T23:38:58.221Z,64.43
2023-04-11T23:41:25.741Z,64.54
2023-04-11T23:43:53.180Z,64.90
2023-04-11T23:46:20.723Z,65.21
2023-04-11T23:48:49.591Z,64.49
2023-04-11T23:51:17.222Z,65.10
2023-04-11T23:53:45.578Z,65.26
2023-04-11T23:56:13.119Z,66.09
2023-04-11T23:58:40.578Z,65.66
